METAR Data
IDs: Format: Raw Decoded Include TAF

Data at: 2258 UTC 23 Apr 2019

KFMN 232253Z 13005KT 10SM FEW038 14/04 A3006 RMK AO2 SLP152 T01440044
KFMN 232153Z 04008KT 020V090 10SM BKN038 15/05 A3006 RMK AO2 SLP151 T01500050
KFMN 232053Z 08008KT 10SM CLR 14/04 A3008 RMK AO2 SLP159 60000 T01440044 56013
KFMN 231953Z 11010G17KT 10SM FEW028 14/06 A3010 RMK AO2 SLP163 T01440056
KFMN 231951Z 08011G17KT 10SM FEW028 14/06 A3010 RMK AO2
KFMN 231853Z 07010G16KT 10SM BKN021 BKN032 BKN050 13/07 A3013 RMK AO2 RAB06E42 SLP174 P0000 T01330067
KFMN 231851Z 07011G16KT 10SM BKN021 BKN032 BKN050 13/07 A3013 RMK AO2 RAB06E42 P0000
KFMN 231753Z 09013KT 10SM BKN031 BKN038 OVC050 11/06 A3014 RMK AO2 RAE03 SLP184 P0000 60001 T01110061 10111 20078 50005
KFMN 231653Z 09014KT 10SM -RA BKN030 BKN036 OVC045 10/07 A3015 RMK AO2 SLP187 P0000 T01000072
KFMN 231553Z 08012KT 9SM -RA OVC039 09/07 A3014 RMK AO2 RAB38 SLP183 P0000 T00890072
KFMN 231453Z 09008KT 10SM OVC031 08/07 A3013 RMK AO2 RAE41 SLP179 P0001 60001 T00830067 51012
KFMN 231353Z 07009KT 10SM -RA OVC031 08/06 A3012 RMK AO2 RAE22B52 SLP174 P0000 T00780061
KFMN 231253Z 08011KT 10SM -RA BKN049 OVC075 08/05 A3010 RMK AO2 RAB40 SLP166 P0000 T00780050
KFMN 231153Z 08011KT 10SM FEW042 OVC050 09/04 A3008 RMK AO2 RAB35E47 SLP156 P0000 60000 T00890039 10106 20083 56003
KFMN 231053Z AUTO 07011KT 10SM OVC041 09/04 A3009 RMK AO2 PK WND 09029/1006 RAB00E32 SLP154 P0000 T00890039
KFMN 230953Z AUTO 07015KT 10SM BKN070 OVC085 09/04 A3008 RMK AO2 SLP151 T00890039
KFMN 230853Z AUTO 11012KT 10SM BKN060 OVC070 09/04 A3009 RMK AO2 RAB13E39 SLP155 P0000 60000 T00940044 58001
KFMN 230753Z AUTO 11010KT 10SM FEW060 BKN075 OVC090 11/03 A3011 RMK AO2 SLP159 T01060033
KFMN 230653Z AUTO 07006KT 10SM OVC100 11/03 A3011 RMK AO2 SLP160 T01060028 402060044
KFMN 230553Z AUTO 13010KT 10SM OVC110 11/03 A3010 RMK AO2 SLP157 T01060033 10178 20106 53014
KFMN 230453Z AUTO 12015KT 10SM OVC120 11/03 A3006 RMK AO2 PK WND 11028/0411 SLP147 T01110028
KFMN 230353Z AUTO 12017KT 10SM FEW120 12/03 A3006 RMK AO2 PK WND 12029/0254 SLP146 T01220033
KFMN 230253Z 12024G31KT 10SM BKN120 13/03 A3005 RMK AO2 PK WND 11031/0253 SLP144 T01280033 53014
KFMN 230153Z 12013KT 10SM OVC110 16/M02 A3001 RMK AO2 SLP134 T01561017
KFMN 230053Z 12013KT 10SM SCT110 16/00 A3001 RMK AO2 PK WND 12026/0038 SLP137 T01560000
KFMN 222353Z 13015G18KT 10SM BKN100 18/M04 A3000 RMK AO2 SLP129 T01781039 10206 20172 55006
KFMN 222253Z 30005KT 10SM CLR 19/M08 A2999 RMK AO2 SLP126 T01891078
KFMN 222153Z VRB04KT 10SM CLR 19/M08 A3000 RMK AO2 SLP124 T01941078
KFMN 222053Z 22006KT 10SM CLR 19/M07 A3002 RMK AO2 SLP131 T01891067 56012
KFMN 221953Z 20015G20KT 10SM CLR 19/M09 A3003 RMK AO2 SLP127 T01941094
KFMN 221853Z 00000KT 10SM CLR 18/M08 A3004 RMK AO2 SLP133 T01831078
KFMN 221753Z 00000KT 10SM CLR 17/M06 A3006 RMK AO2 SLP140 T01721061 10178 20067 58001
KFMN 221653Z 11005KT 10SM CLR 16/M06 A3007 RMK AO2 SLP144 T01611061
KFMN 221553Z 10007KT 10SM CLR 14/M06 A3006 RMK AO2 SLP144 T01441061
KFMN 221453Z 09007KT 10SM CLR 12/M06 A3007 RMK AO2 SLP145 T01221061 51013
KFMN 221353Z 09006KT 10SM CLR 09/M04 A3007 RMK AO2 SLP145 T00891044
KFMN 221253Z 07007KT 10SM CLR 07/M06 A3004 RMK AO2 SLP137 T00671061
KFMN 221153Z 09008KT 10SM CLR 07/M06 A3002 RMK AO2 SLP132 T00671061 10150 20044 53007